BTK7051 WIHH-WIPP
Flight info
| Callsign | BTK7051 |
|---|---|
| Flight time | 0h 51m |
| Altitude | 28000 |
| Route | GOMEL T10 ENSAV |
| Aircraft | A320/M-SDE3FGHIRWY/LB1 |
Departure
| Time | 2026-05-05 06:33 |
|---|---|
| Airport | Halim Perdanakusuma International Airport (WIHH) |
Arrival
| Time | 2026-05-05 07:25 |
|---|---|
| Airport | Sultan Mahmud Badaruddin II Airport (WIPP) |
| Time | Latitude | Longitude | Altitude | Speed | Heading |
|---|---|---|---|---|---|
| 2026-05-05 06:19 | -6.26661 | 106.88495 | 95 ft | 0 kts | 335° |
| 2026-05-05 06:25 | -6.26663 | 106.88496 | 95 ft | 2 kts | 335° |
| 2026-05-05 06:26 | -6.26685 | 106.88509 | 95 ft | 4 kts | 316° |
| 2026-05-05 06:26 | -6.26700 | 106.88530 | 94 ft | 4 kts | 283° |
| 2026-05-05 06:26 | -6.26700 | 106.88550 | 94 ft | 0 kts | 245° |
| 2026-05-05 06:29 | -6.26708 | 106.88533 | 94 ft | 6 kts | 245° |
| 2026-05-05 06:29 | -6.26731 | 106.88487 | 94 ft | 8 kts | 234° |
| 2026-05-05 06:29 | -6.26788 | 106.88491 | 94 ft | 10 kts | 154° |
| 2026-05-05 06:30 | -6.26859 | 106.88523 | 95 ft | 12 kts | 156° |
| 2026-05-05 06:30 | -6.26937 | 106.88512 | 92 ft | 14 kts | 242° |
| 2026-05-05 06:30 | -6.26981 | 106.88416 | 92 ft | 17 kts | 245° |
| 2026-05-05 06:30 | -6.27032 | 106.88304 | 93 ft | 18 kts | 245° |
| 2026-05-05 06:31 | -6.27088 | 106.88182 | 94 ft | 20 kts | 245° |
| 2026-05-05 06:31 | -6.27138 | 106.88072 | 94 ft | 17 kts | 247° |
| 2026-05-05 06:31 | -6.27154 | 106.87953 | 95 ft | 16 kts | 269° |
| 2026-05-05 06:31 | -6.27200 | 106.87928 | 96 ft | 10 kts | 105° |
| 2026-05-05 06:32 | -6.27189 | 106.87967 | 95 ft | 1 kts | 65° |
| 2026-05-05 06:32 | -6.27176 | 106.87995 | 96 ft | 14 kts | 65° |
| 2026-05-05 06:32 | -6.27027 | 106.88313 | 93 ft | 85 kts | 65° |
| 2026-05-05 06:32 | -6.26698 | 106.89027 | 97 ft | 137 kts | 65° |
| 2026-05-05 06:33 | -6.26227 | 106.90016 | 255 ft | 165 kts | 62° |
| 2026-05-05 06:33 | -6.25742 | 106.91037 | 962 ft | 160 kts | 62° |
| 2026-05-05 06:33 | -6.25444 | 106.92115 | 1591 ft | 166 kts | 97° |
| 2026-05-05 06:33 | -6.25961 | 106.93189 | 2120 ft | 179 kts | 124° |
| 2026-05-05 06:34 | -6.26679 | 106.94281 | 2375 ft | 199 kts | 122° |
| 2026-05-05 06:34 | -6.27463 | 106.95531 | 2591 ft | 224 kts | 121° |
| 2026-05-05 06:34 | -6.28324 | 106.96935 | 2936 ft | 248 kts | 120° |
| 2026-05-05 06:34 | -6.29249 | 106.98463 | 3576 ft | 260 kts | 120° |
| 2026-05-05 06:35 | -6.30197 | 107.00040 | 4025 ft | 265 kts | 120° |
| 2026-05-05 06:35 | -6.31147 | 107.01630 | 4144 ft | 265 kts | 120° |
| 2026-05-05 06:35 | -6.32167 | 107.03180 | 4353 ft | 271 kts | 131° |
| 2026-05-05 06:35 | -6.33699 | 107.04286 | 5278 ft | 274 kts | 155° |
| 2026-05-05 06:36 | -6.35578 | 107.04663 | 6141 ft | 282 kts | 181° |
| 2026-05-05 06:36 | -6.37475 | 107.04120 | 6951 ft | 290 kts | 210° |
| 2026-05-05 06:36 | -6.38932 | 107.02713 | 7737 ft | 296 kts | 238° |
| 2026-05-05 06:36 | -6.39580 | 107.00756 | 8512 ft | 299 kts | 267° |
| 2026-05-05 06:37 | -6.39574 | 106.98659 | 9290 ft | 302 kts | 272° |
| 2026-05-05 06:37 | -6.39513 | 106.96542 | 10053 ft | 304 kts | 272° |
| 2026-05-05 06:37 | -6.39444 | 106.94392 | 10643 ft | 315 kts | 272° |
| 2026-05-05 06:37 | -6.39374 | 106.92115 | 10812 ft | 337 kts | 271° |
| 2026-05-05 06:38 | -6.39353 | 106.89689 | 11032 ft | 355 kts | 270° |
| 2026-05-05 06:38 | -6.39390 | 106.87183 | 11559 ft | 361 kts | 269° |
| 2026-05-05 06:38 | -6.39452 | 106.84648 | 12177 ft | 364 kts | 268° |
| 2026-05-05 06:38 | -6.39524 | 106.82092 | 12796 ft | 367 kts | 268° |
| 2026-05-05 06:39 | -6.39593 | 106.79516 | 13394 ft | 370 kts | 269° |
| 2026-05-05 06:39 | -6.39626 | 106.76954 | 13953 ft | 374 kts | 270° |
| 2026-05-05 06:39 | -6.39604 | 106.74296 | 14505 ft | 377 kts | 271° |
| 2026-05-05 06:39 | -6.39552 | 106.71649 | 15050 ft | 381 kts | 271° |
| 2026-05-05 06:40 | -6.39491 | 106.69013 | 15578 ft | 384 kts | 271° |
| 2026-05-05 06:40 | -6.39431 | 106.66318 | 16074 ft | 388 kts | 271° |
| 2026-05-05 06:40 | -6.39380 | 106.63597 | 16578 ft | 391 kts | 271° |
| 2026-05-05 06:40 | -6.39337 | 106.60853 | 17075 ft | 394 kts | 271° |
| 2026-05-05 06:41 | -6.39296 | 106.58086 | 17544 ft | 398 kts | 271° |
| 2026-05-05 06:41 | -6.39254 | 106.55295 | 18014 ft | 401 kts | 271° |
| 2026-05-05 06:41 | -6.39213 | 106.52485 | 18492 ft | 404 kts | 271° |
| 2026-05-05 06:41 | -6.38892 | 106.49677 | 18931 ft | 406 kts | 285° |
| 2026-05-05 06:42 | -6.37842 | 106.47040 | 19366 ft | 408 kts | 301° |
| 2026-05-05 06:42 | -6.36121 | 106.44773 | 19787 ft | 410 kts | 317° |
| 2026-05-05 06:42 | -6.33848 | 106.43051 | 20202 ft | 411 kts | 332° |
| 2026-05-05 06:42 | -6.31193 | 106.42000 | 20611 ft | 412 kts | 347° |
| 2026-05-05 06:43 | -6.28404 | 106.41297 | 21022 ft | 415 kts | 347° |
| 2026-05-05 06:43 | -6.25596 | 106.40593 | 21426 ft | 417 kts | 347° |
| 2026-05-05 06:43 | -6.22770 | 106.39883 | 21809 ft | 420 kts | 347° |
| 2026-05-05 06:43 | -6.19925 | 106.39165 | 22176 ft | 423 kts | 347° |
| 2026-05-05 06:44 | -6.17064 | 106.38440 | 22530 ft | 425 kts | 347° |
| 2026-05-05 06:44 | -6.14186 | 106.37711 | 22878 ft | 428 kts | 347° |
| 2026-05-05 06:44 | -6.11294 | 106.36978 | 23219 ft | 430 kts | 347° |
| 2026-05-05 06:44 | -6.08429 | 106.36065 | 23533 ft | 434 kts | 339° |
| 2026-05-05 06:45 | -6.05702 | 106.34729 | 23847 ft | 438 kts | 334° |
| 2026-05-05 06:45 | -6.03028 | 106.33341 | 24157 ft | 440 kts | 334° |
| 2026-05-05 06:45 | -6.00303 | 106.31932 | 24463 ft | 442 kts | 334° |
| 2026-05-05 06:45 | -5.97553 | 106.30513 | 24780 ft | 444 kts | 334° |
| 2026-05-05 06:46 | -5.94798 | 106.29093 | 25088 ft | 446 kts | 334° |
| 2026-05-05 06:46 | -5.92031 | 106.27667 | 25401 ft | 448 kts | 334° |
| 2026-05-05 06:46 | -5.89259 | 106.26238 | 25712 ft | 449 kts | 334° |
| 2026-05-05 06:46 | -5.86466 | 106.24796 | 26015 ft | 451 kts | 334° |
| 2026-05-05 06:47 | -5.83675 | 106.23354 | 26306 ft | 453 kts | 334° |
| 2026-05-05 06:47 | -5.80868 | 106.21904 | 26609 ft | 454 kts | 334° |
| 2026-05-05 06:47 | -5.78052 | 106.20450 | 26901 ft | 456 kts | 334° |
| 2026-05-05 06:47 | -5.75227 | 106.18991 | 27181 ft | 457 kts | 334° |
| 2026-05-05 06:48 | -5.72543 | 106.17604 | 27439 ft | 459 kts | 334° |
| 2026-05-05 06:48 | -5.69818 | 106.16196 | 27704 ft | 461 kts | 334° |
| 2026-05-05 06:48 | -5.66964 | 106.14720 | 27821 ft | 460 kts | 334° |
| 2026-05-05 06:48 | -5.64136 | 106.13259 | 27842 ft | 457 kts | 334° |
| 2026-05-05 06:49 | -5.61312 | 106.11803 | 27841 ft | 456 kts | 334° |
| 2026-05-05 06:49 | -5.58487 | 106.10347 | 27841 ft | 455 kts | 334° |
| 2026-05-05 06:49 | -5.55674 | 106.08900 | 27841 ft | 455 kts | 334° |
| 2026-05-05 06:49 | -5.52851 | 106.07446 | 27841 ft | 455 kts | 334° |
| 2026-05-05 06:50 | -5.50034 | 106.05994 | 27841 ft | 455 kts | 334° |
| 2026-05-05 06:50 | -5.47223 | 106.04543 | 27841 ft | 455 kts | 334° |
| 2026-05-05 06:50 | -5.44407 | 106.03090 | 27841 ft | 455 kts | 334° |
| 2026-05-05 06:50 | -5.41704 | 106.01429 | 27841 ft | 457 kts | 324° |
| 2026-05-05 06:51 | -5.39203 | 105.99459 | 27839 ft | 457 kts | 323° |
| 2026-05-05 06:51 | -5.36714 | 105.97474 | 27838 ft | 457 kts | 323° |
| 2026-05-05 06:51 | -5.34224 | 105.95491 | 27835 ft | 457 kts | 323° |
| 2026-05-05 06:51 | -5.32573 | 105.94178 | 27834 ft | 457 kts | 323° |
| 2026-05-05 06:52 | -5.30077 | 105.92199 | 27833 ft | 457 kts | 323° |
| 2026-05-05 06:52 | -5.27581 | 105.90219 | 27833 ft | 457 kts | 323° |
| 2026-05-05 06:52 | -5.24280 | 105.87591 | 27832 ft | 457 kts | 323° |
| 2026-05-05 06:52 | -5.21790 | 105.85607 | 27831 ft | 457 kts | 323° |
| 2026-05-05 06:53 | -5.19297 | 105.83624 | 27832 ft | 457 kts | 323° |
| 2026-05-05 06:53 | -5.17603 | 105.82303 | 27832 ft | 457 kts | 324° |
| 2026-05-05 06:53 | -5.15046 | 105.80406 | 27831 ft | 457 kts | 326° |
| 2026-05-05 06:53 | -5.12450 | 105.78567 | 27830 ft | 457 kts | 327° |
| 2026-05-05 06:54 | -5.09872 | 105.76782 | 27829 ft | 457 kts | 327° |
| 2026-05-05 06:54 | -5.07251 | 105.74975 | 27830 ft | 457 kts | 327° |
| 2026-05-05 06:54 | -5.04637 | 105.73162 | 27829 ft | 457 kts | 326° |
| 2026-05-05 06:54 | -5.02031 | 105.71334 | 27830 ft | 457 kts | 326° |
| 2026-05-05 06:55 | -4.99434 | 105.69493 | 27830 ft | 457 kts | 326° |
| 2026-05-05 06:55 | -4.96842 | 105.67641 | 27831 ft | 457 kts | 326° |
| 2026-05-05 06:55 | -4.94253 | 105.65786 | 27831 ft | 458 kts | 326° |
| 2026-05-05 06:55 | -4.91662 | 105.63931 | 27832 ft | 458 kts | 326° |
| 2026-05-05 06:56 | -4.89069 | 105.62079 | 27832 ft | 458 kts | 326° |
| 2026-05-05 06:56 | -4.86472 | 105.60231 | 27832 ft | 458 kts | 326° |
| 2026-05-05 06:56 | -4.83872 | 105.58388 | 27833 ft | 458 kts | 326° |
| 2026-05-05 06:56 | -4.81269 | 105.56548 | 27835 ft | 458 kts | 326° |
| 2026-05-05 06:57 | -4.78668 | 105.54705 | 27836 ft | 458 kts | 326° |
| 2026-05-05 06:57 | -4.76073 | 105.52862 | 27835 ft | 458 kts | 326° |
| 2026-05-05 06:57 | -4.73472 | 105.51014 | 27836 ft | 458 kts | 326° |
| 2026-05-05 06:57 | -4.70872 | 105.49166 | 27837 ft | 458 kts | 326° |
| 2026-05-05 06:58 | -4.68267 | 105.47314 | 27837 ft | 458 kts | 326° |
| 2026-05-05 06:58 | -4.65673 | 105.45468 | 27837 ft | 458 kts | 326° |
| 2026-05-05 06:58 | -4.63074 | 105.43620 | 27837 ft | 458 kts | 326° |
| 2026-05-05 06:58 | -4.60475 | 105.41770 | 27837 ft | 458 kts | 326° |
| 2026-05-05 06:59 | -4.57876 | 105.39921 | 27836 ft | 458 kts | 326° |
| 2026-05-05 06:59 | -4.55275 | 105.38076 | 27835 ft | 458 kts | 326° |
| 2026-05-05 06:59 | -4.52675 | 105.36233 | 27834 ft | 458 kts | 326° |
| 2026-05-05 06:59 | -4.50075 | 105.34391 | 27833 ft | 458 kts | 326° |
| 2026-05-05 07:00 | -4.47478 | 105.32546 | 27832 ft | 458 kts | 326° |
| 2026-05-05 07:00 | -4.44882 | 105.30699 | 27832 ft | 458 kts | 326° |
| 2026-05-05 07:00 | -4.42285 | 105.28853 | 27832 ft | 458 kts | 326° |
| 2026-05-05 07:00 | -4.39687 | 105.27007 | 27832 ft | 458 kts | 326° |
| 2026-05-05 07:01 | -4.37085 | 105.25162 | 27833 ft | 458 kts | 326° |
| 2026-05-05 07:01 | -4.34484 | 105.23316 | 27833 ft | 458 kts | 326° |
| 2026-05-05 07:01 | -4.31884 | 105.21468 | 27834 ft | 458 kts | 326° |
| 2026-05-05 07:01 | -4.29282 | 105.19625 | 27830 ft | 458 kts | 326° |
| 2026-05-05 07:02 | -4.26678 | 105.17783 | 27830 ft | 458 kts | 326° |
| 2026-05-05 07:02 | -4.24074 | 105.15941 | 27709 ft | 457 kts | 326° |
| 2026-05-05 07:02 | -4.21484 | 105.14105 | 27453 ft | 455 kts | 326° |
| 2026-05-05 07:02 | -4.18945 | 105.12303 | 27211 ft | 453 kts | 326° |
| 2026-05-05 07:03 | -4.16378 | 105.10483 | 26963 ft | 451 kts | 326° |
| 2026-05-05 07:03 | -4.13819 | 105.08672 | 26712 ft | 449 kts | 327° |
| 2026-05-05 07:03 | -4.11120 | 105.07125 | 26462 ft | 446 kts | 337° |
| 2026-05-05 07:03 | -4.08218 | 105.06080 | 26210 ft | 442 kts | 347° |
| 2026-05-05 07:04 | -4.05207 | 105.05539 | 25652 ft | 438 kts | 356° |
| 2026-05-05 07:04 | -4.02181 | 105.05307 | 25027 ft | 435 kts | 358° |
| 2026-05-05 07:04 | -3.99176 | 105.05085 | 24401 ft | 432 kts | 358° |
| 2026-05-05 07:04 | -3.96188 | 105.04863 | 23776 ft | 430 kts | 358° |
| 2026-05-05 07:05 | -3.93217 | 105.04640 | 23147 ft | 427 kts | 358° |
| 2026-05-05 07:05 | -3.90263 | 105.04413 | 22522 ft | 425 kts | 357° |
| 2026-05-05 07:05 | -3.87324 | 105.04184 | 21896 ft | 423 kts | 357° |
| 2026-05-05 07:05 | -3.84402 | 105.03959 | 21323 ft | 419 kts | 357° |
| 2026-05-05 07:06 | -3.81510 | 105.03738 | 20801 ft | 415 kts | 357° |
| 2026-05-05 07:06 | -3.78645 | 105.03521 | 20275 ft | 411 kts | 357° |
| 2026-05-05 07:06 | -3.75799 | 105.03306 | 19736 ft | 408 kts | 357° |
| 2026-05-05 07:06 | -3.72986 | 105.03092 | 19223 ft | 404 kts | 357° |
| 2026-05-05 07:07 | -3.70197 | 105.02875 | 18697 ft | 400 kts | 357° |
| 2026-05-05 07:07 | -3.67436 | 105.02660 | 18172 ft | 396 kts | 357° |
| 2026-05-05 07:07 | -3.64702 | 105.02447 | 17658 ft | 392 kts | 357° |
| 2026-05-05 07:07 | -3.61997 | 105.02236 | 17132 ft | 388 kts | 357° |
| 2026-05-05 07:08 | -3.59325 | 105.02031 | 16605 ft | 384 kts | 357° |
| 2026-05-05 07:08 | -3.56677 | 105.01829 | 16132 ft | 378 kts | 357° |
| 2026-05-05 07:08 | -3.54104 | 105.01588 | 15699 ft | 374 kts | 352° |
| 2026-05-05 07:08 | -3.51599 | 105.00929 | 15298 ft | 372 kts | 340° |
| 2026-05-05 07:09 | -3.49283 | 104.99790 | 14897 ft | 371 kts | 329° |
| 2026-05-05 07:09 | -3.47098 | 104.98444 | 14502 ft | 368 kts | 329° |
| 2026-05-05 07:09 | -3.44914 | 104.97107 | 14124 ft | 366 kts | 329° |
| 2026-05-05 07:09 | -3.42748 | 104.95791 | 13751 ft | 364 kts | 329° |
| 2026-05-05 07:10 | -3.40588 | 104.94484 | 13376 ft | 361 kts | 329° |
| 2026-05-05 07:10 | -3.38442 | 104.93187 | 13055 ft | 359 kts | 329° |
| 2026-05-05 07:10 | -3.36305 | 104.91896 | 12792 ft | 358 kts | 329° |
| 2026-05-05 07:10 | -3.34178 | 104.90608 | 12528 ft | 357 kts | 329° |
| 2026-05-05 07:11 | -3.32061 | 104.89322 | 12241 ft | 355 kts | 329° |
| 2026-05-05 07:11 | -3.29955 | 104.88040 | 11942 ft | 353 kts | 329° |
| 2026-05-05 07:11 | -3.27863 | 104.86766 | 11567 ft | 351 kts | 329° |
| 2026-05-05 07:11 | -3.25782 | 104.85501 | 11186 ft | 349 kts | 329° |
| 2026-05-05 07:12 | -3.23712 | 104.84243 | 10813 ft | 347 kts | 329° |
| 2026-05-05 07:12 | -3.21653 | 104.82991 | 10441 ft | 346 kts | 329° |
| 2026-05-05 07:12 | -3.19605 | 104.81746 | 10069 ft | 344 kts | 329° |
| 2026-05-05 07:12 | -3.17576 | 104.80512 | 9691 ft | 335 kts | 328° |
| 2026-05-05 07:13 | -3.15636 | 104.79335 | 9391 ft | 316 kts | 328° |
| 2026-05-05 07:13 | -3.13808 | 104.78226 | 9138 ft | 300 kts | 329° |
| 2026-05-05 07:13 | -3.12035 | 104.77152 | 8884 ft | 296 kts | 328° |
| 2026-05-05 07:13 | -3.10274 | 104.76085 | 8637 ft | 295 kts | 328° |
| 2026-05-05 07:14 | -3.08523 | 104.75020 | 8390 ft | 294 kts | 328° |
| 2026-05-05 07:14 | -3.06781 | 104.73958 | 8140 ft | 291 kts | 328° |
| 2026-05-05 07:14 | -3.05058 | 104.72907 | 7907 ft | 290 kts | 328° |
| 2026-05-05 07:14 | -3.03364 | 104.71872 | 7685 ft | 289 kts | 328° |
| 2026-05-05 07:15 | -3.01683 | 104.70780 | 7448 ft | 287 kts | 321° |
| 2026-05-05 07:15 | -3.00302 | 104.69348 | 7196 ft | 286 kts | 305° |
| 2026-05-05 07:15 | -2.99348 | 104.67619 | 6947 ft | 284 kts | 291° |
| 2026-05-05 07:15 | -2.98618 | 104.65789 | 6735 ft | 283 kts | 291° |
| 2026-05-05 07:16 | -2.97888 | 104.63961 | 6570 ft | 283 kts | 291° |
| 2026-05-05 07:16 | -2.97156 | 104.62139 | 6419 ft | 282 kts | 292° |
| 2026-05-05 07:16 | -2.96426 | 104.60323 | 6268 ft | 281 kts | 291° |
| 2026-05-05 07:16 | -2.95712 | 104.58509 | 6118 ft | 280 kts | 291° |
| 2026-05-05 07:17 | -2.95004 | 104.56694 | 5977 ft | 279 kts | 291° |
| 2026-05-05 07:17 | -2.94299 | 104.54883 | 5852 ft | 279 kts | 291° |
| 2026-05-05 07:17 | -2.93595 | 104.53072 | 5719 ft | 279 kts | 291° |
| 2026-05-05 07:17 | -2.92891 | 104.51267 | 5608 ft | 278 kts | 291° |
| 2026-05-05 07:18 | -2.92185 | 104.49471 | 5490 ft | 278 kts | 291° |
| 2026-05-05 07:18 | -2.91481 | 104.47674 | 5367 ft | 277 kts | 291° |
| 2026-05-05 07:18 | -2.90771 | 104.45880 | 5182 ft | 277 kts | 294° |
| 2026-05-05 07:18 | -2.89647 | 104.44353 | 4933 ft | 274 kts | 322° |
| 2026-05-05 07:19 | -2.87931 | 104.43572 | 4680 ft | 273 kts | 352° |
| 2026-05-05 07:19 | -2.86060 | 104.43705 | 4490 ft | 270 kts | 17° |
| 2026-05-05 07:19 | -2.84350 | 104.44490 | 4488 ft | 269 kts | 34° |
| 2026-05-05 07:19 | -2.83004 | 104.45717 | 4424 ft | 258 kts | 52° |
| 2026-05-05 07:20 | -2.82117 | 104.47228 | 4281 ft | 249 kts | 69° |
| 2026-05-05 07:20 | -2.81710 | 104.48889 | 4066 ft | 244 kts | 86° |
| 2026-05-05 07:20 | -2.81788 | 104.50551 | 3813 ft | 238 kts | 102° |
| 2026-05-05 07:20 | -2.82302 | 104.52107 | 3513 ft | 235 kts | 113° |
| 2026-05-05 07:21 | -2.82936 | 104.53608 | 3200 ft | 234 kts | 113° |
| 2026-05-05 07:21 | -2.83563 | 104.55098 | 2890 ft | 232 kts | 113° |
| 2026-05-05 07:21 | -2.84182 | 104.56567 | 2581 ft | 225 kts | 113° |
| 2026-05-05 07:21 | -2.84775 | 104.57976 | 2294 ft | 216 kts | 114° |
| 2026-05-05 07:22 | -2.85337 | 104.59311 | 2017 ft | 207 kts | 113° |
| 2026-05-05 07:22 | -2.85885 | 104.60617 | 1770 ft | 200 kts | 114° |
| 2026-05-05 07:22 | -2.86412 | 104.61869 | 1494 ft | 185 kts | 114° |
| 2026-05-05 07:22 | -2.86890 | 104.63005 | 1257 ft | 169 kts | 114° |
| 2026-05-05 07:23 | -2.87326 | 104.64043 | 1034 ft | 155 kts | 114° |
| 2026-05-05 07:23 | -2.87726 | 104.64993 | 835 ft | 147 kts | 114° |
| 2026-05-05 07:23 | -2.88119 | 104.65925 | 648 ft | 144 kts | 115° |
| 2026-05-05 07:23 | -2.88508 | 104.66847 | 458 ft | 144 kts | 114° |
| 2026-05-05 07:24 | -2.88895 | 104.67766 | 227 ft | 143 kts | 114° |
| 2026-05-05 07:24 | -2.89281 | 104.68683 | 49 ft | 143 kts | 114° |
| 2026-05-05 07:24 | -2.89631 | 104.69513 | 13 ft | 108 kts | 113° |
| 2026-05-05 07:24 | -2.89854 | 104.70046 | 22 ft | 58 kts | 113° |
| 2026-05-05 07:25 | -2.89966 | 104.70311 | 22 ft | 25 kts | 112° |
| 2026-05-05 07:25 | -2.90006 | 104.70418 | 21 ft | 17 kts | 99° |
| 2026-05-05 07:25 | -2.89966 | 104.70484 | 22 ft | 7 kts | 25° |
| 2026-05-05 07:25 | -2.89920 | 104.70505 | 23 ft | 8 kts | 24° |
| 2026-05-05 07:26 | -2.89866 | 104.70528 | 24 ft | 9 kts | 23° |
| 2026-05-05 07:26 | -2.89806 | 104.70553 | 26 ft | 9 kts | 23° |
| 2026-05-05 07:26 | -2.89751 | 104.70530 | 28 ft | 11 kts | 293° |
| 2026-05-05 07:26 | -2.89727 | 104.70476 | 30 ft | 7 kts | 295° |
| 2026-05-05 07:27 | -2.89687 | 104.70478 | 29 ft | 6 kts | 25° |
| 2026-05-05 07:27 | -2.89654 | 104.70492 | 28 ft | 3 kts | 23° |
| 2026-05-05 07:27 | -2.89645 | 104.70496 | 26 ft | 1 kts | 23° |
| 2026-05-05 07:27 | -2.89638 | 104.70499 | 26 ft | 1 kts | 23° |
| 2026-05-05 07:28 | -2.89633 | 104.70501 | 28 ft | 0 kts | 23° |